Sea Pearl — FAE4338 — position and weather

sailwx.info

Track history (hours):
 
Tides and Currents Weather Stations Pressure Air Temp Water Temp Dewpoint Dewpoint Depression Visibility Wind Speed Wind Dir Waves Ship Positions

Sea Pearl

Last reported at 2017-Aug-24 09:53 UTC. Time now 2017-Sep-24 08:46 UTC.
Position N 46°52' W 002°22'.
Warning: this ship's position is 30 days out of date.

Length 13 m.

Type: Other ship. MMSI: 227475580.

Date/timePositionNaut miles runAvg speedWind from/ knotsBaromVisibWave heightAir tempDewpointWater temp
2017-Aug-24 09:53N 46°52' W 002°22'  
2017-Aug-20 08:07N 47°10' W 002°23'  
2017-Aug-16 16:43N 47°15' W 002°38'2 7.4
2017-Aug-16 16:28N 47°16' W 002°41'4 7.3
2017-Aug-16 15:54N 47°17' W 002°47'3 7.1
2017-Aug-16 15:30N 47°17' W 002°51'4 7.1
2017-Aug-16 14:59N 47°18' W 002°56'4 7.4
2017-Aug-16 14:30N 47°19' W 003°01'3 5.6
2017-Aug-16 14:00N 47°19' W 003°06'0 0.0
2017-Aug-16 13:30N 47°19' W 003°06'0 0.0
2017-Aug-16 13:00N 47°19' W 003°06'0 0.0
2017-Aug-16 12:30N 47°19' W 003°06'0 0.0
2017-Aug-16 12:00N 47°19' W 003°06'0 0.0
2017-Aug-16 11:30N 47°19' W 003°06'0 0.0
2017-Aug-16 11:00N 47°19' W 003°06'3 6.3
2017-Aug-16 10:30N 47°22' W 003°07'4 7.7
2017-Aug-16 10:00N 47°25' W 003°10'4 8.0
2017-Aug-16 09:30N 47°29' W 003°13'4 7.6
2017-Aug-16 09:01N 47°32' W 003°15'4 7.6
2017-Aug-16 08:30N 47°36' W 003°18'4 7.5
2017-Aug-16 08:00N 47°39' W 003°21'4 7.2
2017-Aug-16 07:30N 47°42' W 003°22'1 0.0
2017-Aug-14 10:46N 47°43' W 003°21'0 0.7
2017-Aug-14 10:30N 47°43' W 003°21'3 6.4
2017-Aug-14 10:00N 47°40' W 003°25'  
Track history (hours):
 
Tides and Currents Weather Stations Pressure Air Temp Water Temp Dewpoint Dewpoint Depression Visibility Wind Speed Wind Dir Waves Ship Positions

Sea Pearl

Last reported at 2017-Aug-24 09:53 UTC. Time now 2017-Sep-24 08:46 UTC.
Position N 46°52' W 002°22'.
Warning: this ship's position is 30 days out of date.

Length 13 m.

Type: Other ship. MMSI: 227475580.

Date/timePositionNaut miles runAvg speedWind from/ knotsBaromVisibWave heightAir tempDewpointWater temp
2017-Aug-24 09:53N 46°52' W 002°22'  
2017-Aug-20 08:07N 47°10' W 002°23'  
2017-Aug-16 16:43N 47°15' W 002°38'2 7.4
2017-Aug-16 16:28N 47°16' W 002°41'4 7.3
2017-Aug-16 15:54N 47°17' W 002°47'3 7.1
2017-Aug-16 15:30N 47°17' W 002°51'4 7.1
2017-Aug-16 14:59N 47°18' W 002°56'4 7.4
2017-Aug-16 14:30N 47°19' W 003°01'3 5.6
2017-Aug-16 14:00N 47°19' W 003°06'0 0.0
2017-Aug-16 13:30N 47°19' W 003°06'0 0.0
2017-Aug-16 13:00N 47°19' W 003°06'0 0.0
2017-Aug-16 12:30N 47°19' W 003°06'0 0.0
2017-Aug-16 12:00N 47°19' W 003°06'0 0.0
2017-Aug-16 11:30N 47°19' W 003°06'0 0.0
2017-Aug-16 11:00N 47°19' W 003°06'3 6.3
2017-Aug-16 10:30N 47°22' W 003°07'4 7.7
2017-Aug-16 10:00N 47°25' W 003°10'4 8.0
2017-Aug-16 09:30N 47°29' W 003°13'4 7.6
2017-Aug-16 09:01N 47°32' W 003°15'4 7.6
2017-Aug-16 08:30N 47°36' W 003°18'4 7.5
2017-Aug-16 08:00N 47°39' W 003°21'4 7.2
2017-Aug-16 07:30N 47°42' W 003°22'1 0.0
2017-Aug-14 10:46N 47°43' W 003°21'0 0.7
2017-Aug-14 10:30N 47°43' W 003°21'3 6.4
2017-Aug-14 10:00N 47°40' W 003°25'  

Dump ship's entire track history